Time;durP1;ratioP1;P1;durP2;ratioP2;P2;SDS_P1;SDS_P2;PMS_P1;PMS_P2;Temp;Humidity;BMP_temperature;BMP_pressure;BME280_temperature;BME280_humidity;BME280_pressure;Samples;Min_cycle;Max_cycle;Signal;HPM_P1;HPM_P2
2023/08/04 00:00:09;;;;;;;2.92;0.75;;;16.80;99.90;;;;;;5009919;28;20494;-68
2023/08/04 00:02:36;;;;;;;5.60;0.88;;;16.70;99.90;;;;;;5014119;28;20436;-67
2023/08/04 00:05:03;;;;;;;3.70;0.68;;;16.70;99.90;;;;;;5028671;28;20049;-67
2023/08/04 00:07:29;;;;;;;4.45;0.70;;;16.70;99.90;;;;;;5022140;28;20456;-68
2023/08/04 00:09:54;;;;;;;1.70;0.50;;;16.70;99.90;;;;;;5015323;28;20067;-68
2023/08/04 00:12:20;;;;;;;4.25;0.50;;;16.60;99.90;;;;;;5009755;28;20156;-67
2023/08/04 00:14:47;;;;;;;1.83;0.70;;;16.60;99.90;;;;;;5010229;28;20462;-67
2023/08/04 00:17:13;;;;;;;0.77;0.40;;;16.70;99.90;;;;;;5008555;28;20060;-67
2023/08/04 00:19:40;;;;;;;5.93;0.57;;;16.60;99.90;;;;;;5024555;28;20037;-68
2023/08/04 00:22:06;;;;;;;3.55;0.98;;;16.60;99.90;;;;;;5025034;28;20038;-68
2023/08/04 00:24:31;;;;;;;4.18;1.20;;;16.60;99.90;;;;;;5009100;28;20048;-68
2023/08/04 00:26:59;;;;;;;3.80;1.00;;;16.60;99.90;;;;;;4996049;28;20042;-68
2023/08/04 00:29:25;;;;;;;3.53;1.30;;;16.60;99.90;;;;;;5027298;28;20029;-68
2023/08/04 00:31:50;;;;;;;3.70;1.30;;;16.60;99.90;;;;;;5022517;28;20045;-69
2023/08/04 00:34:16;;;;;;;3.53;0.82;;;16.60;99.90;;;;;;5023223;28;20049;-68
2023/08/04 00:36:44;;;;;;;1.73;0.70;;;16.60;99.90;;;;;;5024272;28;20041;-68
2023/08/04 00:39:10;;;;;;;2.78;0.63;;;16.60;99.90;;;;;;5020269;28;20479;-69
2023/08/04 00:41:35;;;;;;;3.22;0.60;;;16.50;99.90;;;;;;5010166;28;20494;-69
2023/08/04 00:44:02;;;;;;;4.47;0.73;;;16.60;99.90;;;;;;5025682;28;20045;-69
2023/08/04 00:46:29;;;;;;;;;;;16.60;99.90;;;;;;5026380;28;20033;-68
2023/08/04 00:48:59;;;;;;;;;;;16.60;99.90;;;;;;5013221;28;19964;-68
2023/08/04 00:51:25;;;;;;;3.90;0.75;;;16.50;99.90;;;;;;5023904;28;20051;-68
2023/08/04 00:53:51;;;;;;;;;;;16.50;99.90;;;;;;5028971;28;20421;-68
2023/08/04 00:56:17;;;;;;;4.22;1.00;;;16.50;99.90;;;;;;5005203;28;19925;-68
2023/08/04 00:58:42;;;;;;;5.15;0.93;;;16.50;99.90;;;;;;5013814;28;20045;-68
2023/08/04 01:01:08;;;;;;;2.53;0.70;;;16.50;99.90;;;;;;5009119;28;20053;-68
2023/08/04 01:03:37;;;;;;;3.03;1.08;;;16.50;99.90;;;;;;5028682;28;20450;-68
2023/08/04 01:06:34;;;;;;;2.25;0.65;;;16.50;99.90;;;;;;5024982;28;20049;-68
2023/08/04 01:09:06;;;;;;;;;;;16.50;99.90;;;;;;5004580;28;20068;-68
2023/08/04 01:11:39;;;;;;;1.75;0.65;;;16.40;99.90;;;;;;4991241;28;19944;-69
2023/08/04 01:14:06;;;;;;;1.63;0.60;;;16.50;99.90;;;;;;5012357;28;20472;-68
2023/08/04 01:16:32;;;;;;;1.83;0.68;;;16.40;99.90;;;;;;5006254;28;20387;-69
2023/08/04 01:19:00;;;;;;;2.17;0.60;;;16.40;99.90;;;;;;5004006;28;20049;-68
2023/08/04 01:21:39;;;;;;;1.80;0.50;;;16.40;99.90;;;;;;5009390;28;20037;-68
2023/08/04 01:24:04;;;;;;;2.15;0.60;;;16.40;99.90;;;;;;5008211;28;20150;-68
2023/08/04 01:26:33;;;;;;;3.00;0.50;;;16.40;99.90;;;;;;5008241;28;20535;-68
2023/08/04 01:28:59;;;;;;;3.88;0.70;;;16.40;99.90;;;;;;5003093;28;20052;-68
2023/08/04 01:31:25;;;;;;;1.20;0.57;;;16.40;99.90;;;;;;5007955;28;20033;-68
2023/08/04 01:33:51;;;;;;;2.78;0.77;;;16.40;99.90;;;;;;5011628;28;20043;-68
2023/08/04 01:36:17;;;;;;;1.70;0.70;;;16.40;99.90;;;;;;5021602;28;20072;-69
2023/08/04 01:38:43;;;;;;;1.67;0.40;;;16.40;99.90;;;;;;5011758;28;20053;-68
2023/08/04 01:41:08;;;;;;;2.33;0.40;;;16.40;99.90;;;;;;5006409;28;20049;-68
2023/08/04 01:43:34;;;;;;;4.15;0.90;;;16.40;99.90;;;;;;5007281;28;20060;-68
2023/08/04 01:46:00;;;;;;;1.95;0.50;;;16.40;99.90;;;;;;5004030;28;20698;-68
2023/08/04 01:48:26;;;;;;;1.67;0.47;;;16.40;99.90;;;;;;5007549;28;20049;-68
2023/08/04 01:50:52;;;;;;;3.72;0.70;;;16.40;99.90;;;;;;5011798;28;20045;-68
2023/08/04 01:53:21;;;;;;;1.17;0.43;;;16.40;99.90;;;;;;5011284;28;20095;-68
2023/08/04 01:55:49;;;;;;;0.50;0.40;;;16.40;99.90;;;;;;5005088;28;20407;-68
2023/08/04 01:58:15;;;;;;;1.95;0.50;;;16.30;99.90;;;;;;5004699;28;20483;-69
2023/08/04 02:00:41;;;;;;;3.78;0.80;;;16.40;99.90;;;;;;5004072;28;20045;-68
2023/08/04 02:03:06;;;;;;;2.75;0.47;;;16.40;99.90;;;;;;5003526;28;20103;-68
2023/08/04 02:05:33;;;;;;;0.90;0.38;;;16.30;99.90;;;;;;5009291;28;20092;-68
2023/08/04 02:07:58;;;;;;;2.03;0.70;;;16.30;99.90;;;;;;5009698;28;20391;-68
2023/08/04 02:10:24;;;;;;;1.55;0.52;;;16.30;99.90;;;;;;5002100;28;20096;-68
2023/08/04 02:12:49;;;;;;;3.33;0.60;;;16.30;99.90;;;;;;5029504;28;20402;-68
2023/08/04 02:15:15;;;;;;;2.67;0.73;;;16.30;99.90;;;;;;5024950;28;20470;-68
2023/08/04 02:17:41;;;;;;;1.27;0.57;;;16.30;99.90;;;;;;5010512;28;20050;-69
2023/08/04 02:20:07;;;;;;;2.05;0.88;;;16.30;99.90;;;;;;5004582;28;20057;-68
2023/08/04 02:22:33;;;;;;;3.45;0.70;;;16.30;99.90;;;;;;5006005;28;20390;-70
2023/08/04 02:24:58;;;;;;;1.60;0.60;;;16.30;99.90;;;;;;5006961;28;20049;-70
2023/08/04 02:27:26;;;;;;;1.88;0.85;;;16.20;99.90;;;;;;5024733;28;20100;-70
2023/08/04 02:29:52;;;;;;;1.23;0.50;;;16.20;99.90;;;;;;5004618;28;20033;-70
2023/08/04 02:32:17;;;;;;;1.20;0.52;;;16.20;99.90;;;;;;5010397;28;20123;-71
2023/08/04 02:34:43;;;;;;;1.58;0.50;;;16.20;99.90;;;;;;5008885;28;20141;-70
2023/08/04 02:37:09;;;;;;;2.70;0.50;;;16.20;99.90;;;;;;5024961;28;20042;-70
2023/08/04 02:39:35;;;;;;;1.58;0.60;;;16.20;99.90;;;;;;5029217;28;20498;-70
2023/08/04 02:42:00;;;;;;;1.48;0.77;;;16.10;99.90;;;;;;5024113;28;20038;-70
2023/08/04 02:44:26;;;;;;;3.85;0.50;;;16.20;99.90;;;;;;5029682;28;20096;-70
2023/08/04 02:46:51;;;;;;;2.15;0.50;;;16.20;99.90;;;;;;5004922;28;20068;-70
2023/08/04 02:49:17;;;;;;;2.03;0.63;;;16.10;99.90;;;;;;5009465;28;20453;-70
2023/08/04 02:51:43;;;;;;;3.80;0.40;;;16.10;99.90;;;;;;5007578;28;20117;-69
2023/08/04 02:54:10;;;;;;;1.75;0.57;;;16.10;99.90;;;;;;5006380;28;20096;-69
2023/08/04 02:56:38;;;;;;;1.92;0.65;;;16.20;99.90;;;;;;5009241;28;20174;-69
2023/08/04 02:59:06;;;;;;;1.75;0.77;;;16.20;99.90;;;;;;5007118;28;20199;-70
2023/08/04 03:01:31;;;;;;;2.85;0.63;;;16.20;99.90;;;;;;5010627;28;20053;-70
2023/08/04 03:03:57;;;;;;;0.82;0.43;;;16.10;99.90;;;;;;5007524;28;20044;-69
2023/08/04 03:06:23;;;;;;;4.72;0.80;;;16.20;99.90;;;;;;5006639;28;20103;-69
2023/08/04 03:08:48;;;;;;;1.23;0.52;;;16.20;99.90;;;;;;5006804;28;20042;-69
2023/08/04 03:11:14;;;;;;;2.85;0.63;;;16.20;99.90;;;;;;5021758;28;20045;-69
2023/08/04 03:13:40;;;;;;;1.92;0.70;;;16.20;99.90;;;;;;5024706;28;20064;-69
2023/08/04 03:16:06;;;;;;;1.38;0.40;;;16.20;99.90;;;;;;4992008;28;20136;-69
2023/08/04 03:18:31;;;;;;;2.17;0.70;;;16.20;99.90;;;;;;5029477;28;20057;-70
2023/08/04 03:21:02;;;;;;;4.57;0.68;;;16.10;99.90;;;;;;5028422;28;20078;-70
2023/08/04 03:23:27;;;;;;;1.25;0.60;;;16.10;99.90;;;;;;5010056;28;20037;-71
2023/08/04 03:25:53;;;;;;;2.47;0.85;;;16.20;99.90;;;;;;5030676;28;20456;-69
2023/08/04 03:28:18;;;;;;;1.33;0.63;;;16.20;99.90;;;;;;5010462;28;20053;-69
2023/08/04 03:30:44;;;;;;;2.00;0.70;;;16.20;99.90;;;;;;5026777;28;20048;-70
2023/08/04 03:33:10;;;;;;;2.38;0.60;;;16.10;99.90;;;;;;5009564;28;20045;-69
2023/08/04 03:35:35;;;;;;;4.50;1.10;;;16.10;99.90;;;;;;5029714;28;20132;-69
2023/08/04 03:38:03;;;;;;;2.17;1.10;;;16.20;99.90;;;;;;5007995;28;20057;-70
2023/08/04 03:40:29;;;;;;;2.92;1.15;;;16.10;99.90;;;;;;5028008;28;20045;-70
2023/08/04 03:42:55;;;;;;;2.70;0.95;;;16.10;99.90;;;;;;5027276;28;20155;-69
2023/08/04 03:45:20;;;;;;;2.65;0.82;;;16.10;99.90;;;;;;4992843;28;20049;-69
2023/08/04 03:47:46;;;;;;;2.97;0.90;;;16.10;99.90;;;;;;5015335;28;20041;-69
2023/08/04 03:50:12;;;;;;;2.50;0.70;;;16.10;99.90;;;;;;5025762;28;20064;-70
2023/08/04 03:52:40;;;;;;;2.55;0.98;;;16.10;99.90;;;;;;5010379;28;20077;-69
2023/08/04 03:55:06;;;;;;;3.20;0.93;;;16.10;99.90;;;;;;5011229;28;20516;-70
2023/08/04 03:57:32;;;;;;;3.42;1.10;;;16.10;99.90;;;;;;5010590;28;20049;-70
2023/08/04 03:59:58;;;;;;;2.72;0.80;;;16.10;99.90;;;;;;5006680;28;20041;-70
2023/08/04 04:02:24;;;;;;;;;;;16.10;99.90;;;;;;5009338;28;20047;-69
2023/08/04 04:04:50;;;;;;;3.17;1.20;;;16.10;99.90;;;;;;5008975;28;19921;-69
2023/08/04 04:07:15;;;;;;;3.25;0.95;;;16.10;99.90;;;;;;5014260;28;20046;-69
2023/08/04 04:09:41;;;;;;;2.88;0.90;;;16.10;99.90;;;;;;5008536;28;20458;-70
2023/08/04 04:12:07;;;;;;;2.60;1.15;;;16.10;99.90;;;;;;5009529;28;20033;-70
2023/08/04 04:14:33;;;;;;;4.00;1.15;;;16.10;99.90;;;;;;5009233;28;20045;-69
2023/08/04 04:16:58;;;;;;;6.13;0.88;;;16.10;99.90;;;;;;5021336;28;20056;-69
2023/08/04 04:19:26;;;;;;;2.85;0.95;;;16.10;99.90;;;;;;5026946;28;20148;-69
2023/08/04 04:21:52;;;;;;;2.67;0.90;;;16.20;99.90;;;;;;5006692;28;20052;-70
2023/08/04 04:24:17;;;;;;;4.00;1.05;;;16.20;99.90;;;;;;5007502;28;20045;-71
2023/08/04 04:26:43;;;;;;;2.42;1.13;;;16.20;99.90;;;;;;5003452;28;20057;-70
2023/08/04 04:29:09;;;;;;;4.15;1.27;;;16.20;99.90;;;;;;5026300;28;20033;-70
2023/08/04 04:31:36;;;;;;;2.75;1.10;;;16.10;99.90;;;;;;5007788;28;20086;-70
2023/08/04 04:34:02;;;;;;;3.25;1.02;;;16.20;99.90;;;;;;5020130;28;20263;-70
2023/08/04 04:36:28;;;;;;;6.80;1.13;;;16.20;99.90;;;;;;5010238;28;20132;-71
2023/08/04 04:38:53;;;;;;;2.80;0.95;;;16.20;99.90;;;;;;5006971;28;20130;-70
2023/08/04 04:41:19;;;;;;;2.60;1.50;;;16.20;99.90;;;;;;5007895;28;20175;-70
2023/08/04 04:43:45;;;;;;;3.08;1.38;;;16.30;99.90;;;;;;5024236;28;20099;-70
2023/08/04 04:46:10;;;;;;;4.47;1.30;;;16.20;99.90;;;;;;5007025;28;20116;-71
2023/08/04 04:48:36;;;;;;;5.28;1.70;;;16.30;99.90;;;;;;5029723;28;20045;-71
2023/08/04 04:51:02;;;;;;;4.28;1.40;;;16.30;99.90;;;;;;5020901;28;20037;-70
2023/08/04 04:53:30;;;;;;;;;;;16.30;99.90;;;;;;5005260;28;20053;-70
2023/08/04 04:55:56;;;;;;;3.50;1.65;;;16.30;99.90;;;;;;5007045;28;20436;-71
2023/08/04 04:58:22;;;;;;;4.13;1.40;;;16.30;99.90;;;;;;5024992;28;20175;-71
2023/08/04 05:00:47;;;;;;;4.00;1.50;;;16.30;99.90;;;;;;5020675;28;20206;-70
2023/08/04 05:03:13;;;;;;;3.40;1.48;;;16.40;99.90;;;;;;5007047;28;20496;-70
2023/08/04 05:05:41;;;;;;;5.00;1.73;;;16.40;99.90;;;;;;5006081;28;20523;-70
2023/08/04 05:08:09;;;;;;;4.60;1.38;;;16.40;99.90;;;;;;5022667;28;20466;-70
2023/08/04 05:10:34;;;;;;;3.45;1.38;;;16.40;99.90;;;;;;5004723;28;20176;-70
2023/08/04 05:13:00;;;;;;;2.60;1.15;;;16.40;99.90;;;;;;5007369;28;20128;-70
2023/08/04 05:15:26;;;;;;;6.78;1.00;;;16.40;99.90;;;;;;4988739;28;20041;-70
2023/08/04 05:17:51;;;;;;;4.47;1.20;;;16.40;99.90;;;;;;4990289;28;20122;-71
2023/08/04 05:20:17;;;;;;;4.50;1.55;;;16.40;99.90;;;;;;5005738;28;20106;-71
2023/08/04 05:22:43;;;;;;;3.17;1.30;;;16.50;99.90;;;;;;5022488;28;20475;-71
2023/08/04 05:25:09;;;;;;;4.40;1.50;;;16.50;99.90;;;;;;5024268;28;20183;-71
2023/08/04 05:27:35;;;;;;;3.58;1.70;;;16.50;99.90;;;;;;5007221;28;20041;-70
2023/08/04 05:30:01;;;;;;;9.25;1.30;;;16.50;99.90;;;;;;5023706;28;20135;-71
2023/08/04 05:32:27;;;;;;;5.43;1.17;;;16.50;99.90;;;;;;5004182;28;20068;-70
2023/08/04 05:34:52;;;;;;;;;;;16.50;99.90;;;;;;5007571;28;20060;-70
2023/08/04 05:37:18;;;;;;;5.15;1.50;;;16.50;99.90;;;;;;5003319;28;19917;-70
2023/08/04 05:39:44;;;;;;;4.97;1.20;;;16.50;99.90;;;;;;5007800;28;20049;-70
2023/08/04 05:42:09;;;;;;;5.70;1.00;;;16.50;99.90;;;;;;5006276;28;20111;-70
2023/08/04 05:44:35;;;;;;;4.30;1.20;;;16.60;99.90;;;;;;5006216;28;20120;-69
2023/08/04 05:47:04;;;;;;;3.42;1.48;;;16.60;99.90;;;;;;5006520;28;20060;-70
2023/08/04 05:49:32;;;;;;;4.95;1.35;;;16.60;99.90;;;;;;5022411;28;20484;-69
2023/08/04 05:52:01;;;;;;;3.90;1.30;;;16.60;99.90;;;;;;5003482;28;20072;-71
2023/08/04 05:54:27;;;;;;;5.80;1.15;;;16.60;99.90;;;;;;5004306;28;20056;-72
2023/08/04 05:56:52;;;;;;;3.75;1.95;;;16.60;99.90;;;;;;4990224;28;20041;-72
2023/08/04 05:59:18;;;;;;;3.80;1.38;;;16.70;99.90;;;;;;5005479;28;20511;-71
2023/08/04 06:01:44;;;;;;;3.92;1.40;;;16.70;99.90;;;;;;5021085;28;20121;-71
2023/08/04 06:04:10;;;;;;;5.65;1.42;;;16.70;99.90;;;;;;5006595;28;20045;-70
2023/08/04 06:06:35;;;;;;;3.53;1.10;;;16.70;99.90;;;;;;5019724;28;20091;-70
2023/08/04 06:09:01;;;;;;;4.30;0.93;;;16.70;99.90;;;;;;5006064;28;20037;-69
2023/08/04 06:11:27;;;;;;;3.78;1.20;;;16.80;99.90;;;;;;5004033;28;20043;-71
2023/08/04 06:13:53;;;;;;;4.93;1.27;;;16.80;99.90;;;;;;5006636;28;20041;-70
2023/08/04 06:16:18;;;;;;;3.70;1.00;;;16.80;99.90;;;;;;5002017;28;20096;-70
2023/08/04 06:18:44;;;;;;;2.95;1.00;;;16.90;99.90;;;;;;5021334;28;20354;-70
2023/08/04 06:21:10;;;;;;;4.90;1.25;;;16.90;99.90;;;;;;4989850;28;20072;-71
2023/08/04 06:23:35;;;;;;;2.60;1.20;;;16.90;99.90;;;;;;5004846;28;20422;-71
2023/08/04 06:26:01;;;;;;;4.53;1.20;;;16.90;99.90;;;;;;5023791;28;20033;-70
2023/08/04 06:28:27;;;;;;;2.25;0.90;;;17.00;99.90;;;;;;5006080;28;20045;-71
2023/08/04 06:30:52;;;;;;;2.83;1.20;;;17.00;99.90;;;;;;5005265;28;20037;-70
2023/08/04 06:33:21;;;;;;;2.85;1.38;;;17.00;99.90;;;;;;5019628;28;20048;-71
2023/08/04 06:35:46;;;;;;;4.05;1.40;;;17.10;99.90;;;;;;5020475;28;20037;-72
2023/08/04 06:38:12;;;;;;;1.80;1.10;;;17.10;99.90;;;;;;5004486;28;20202;-71
2023/08/04 06:40:39;;;;;;;4.43;1.20;;;17.10;99.90;;;;;;5001593;28;20065;-70
2023/08/04 06:43:06;;;;;;;2.33;1.00;;;17.10;99.90;;;;;;5021518;28;20141;-70
2023/08/04 06:45:31;;;;;;;2.53;1.17;;;17.20;99.90;;;;;;4997459;28;20342;-71
2023/08/04 06:47:59;;;;;;;3.55;0.85;;;17.20;99.90;;;;;;5022540;28;20177;-70
2023/08/04 06:50:26;;;;;;;4.85;1.33;;;17.20;99.90;;;;;;5007854;28;20076;-71
2023/08/04 06:52:51;;;;;;;4.07;1.35;;;17.20;99.90;;;;;;5009447;28;20160;-70
2023/08/04 06:55:17;;;;;;;5.45;1.40;;;17.20;99.90;;;;;;5007773;28;20033;-71
2023/08/04 06:57:42;;;;;;;3.00;1.10;;;17.20;99.90;;;;;;4994449;28;20049;-71
2023/08/04 07:00:09;;;;;;;3.05;1.25;;;17.20;99.90;;;;;;5008666;28;20121;-71
2023/08/04 07:02:35;;;;;;;3.58;1.55;;;17.30;99.90;;;;;;5009774;28;20187;-71
2023/08/04 07:05:00;;;;;;;4.47;1.83;;;17.30;99.90;;;;;;5008489;28;20037;-70
2023/08/04 07:07:26;;;;;;;4.10;1.63;;;17.30;99.90;;;;;;5010225;28;20124;-71
2023/08/04 07:09:52;;;;;;;4.03;1.55;;;17.40;99.90;;;;;;5007160;28;20077;-71
2023/08/04 07:12:18;;;;;;;10.82;1.60;;;17.40;99.90;;;;;;5009976;28;20073;-71
2023/08/04 07:14:43;;;;;;;4.18;1.52;;;17.50;99.90;;;;;;4995263;28;20049;-71
2023/08/04 07:17:09;;;;;;;4.20;1.10;;;17.50;99.90;;;;;;4989752;28;20072;-71
2023/08/04 07:19:35;;;;;;;2.30;1.20;;;17.50;99.90;;;;;;5027603;28;20041;-71
2023/08/04 07:22:00;;;;;;;2.42;1.00;;;17.50;99.90;;;;;;5006088;28;20138;-71
2023/08/04 07:24:26;;;;;;;3.38;0.88;;;17.50;99.90;;;;;;5008756;28;20272;-71
2023/08/04 07:26:52;;;;;;;2.08;1.10;;;17.50;99.90;;;;;;5008893;28;20042;-71
2023/08/04 07:29:17;;;;;;;3.20;1.15;;;17.50;99.90;;;;;;5015429;28;20113;-71
2023/08/04 07:31:43;;;;;;;2.55;0.80;;;17.50;99.90;;;;;;5014950;28;20491;-71
2023/08/04 07:34:09;;;;;;;4.57;0.90;;;17.50;99.90;;;;;;5007547;28;20127;-71
2023/08/04 07:36:34;;;;;;;1.23;0.80;;;17.50;99.90;;;;;;5025888;28;20466;-71
2023/08/04 07:39:00;;;;;;;2.83;0.80;;;17.50;99.90;;;;;;5012676;28;20368;-71
2023/08/04 07:41:26;;;;;;;5.97;1.33;;;17.50;99.90;;;;;;5030892;28;20117;-71
2023/08/04 07:43:52;;;;;;;3.25;0.75;;;17.50;99.90;;;;;;5013205;28;20082;-71
2023/08/04 07:46:21;;;;;;;4.65;0.80;;;17.50;99.90;;;;;;5008289;28;20108;-71
2023/08/04 07:48:49;;;;;;;3.22;1.08;;;17.60;99.90;;;;;;5009757;28;20042;-71
2023/08/04 07:51:15;;;;;;;3.53;1.08;;;17.60;99.90;;;;;;5033154;28;20448;-71
2023/08/04 07:53:41;;;;;;;4.60;1.17;;;17.60;99.90;;;;;;5009315;28;20049;-71
2023/08/04 07:56:07;;;;;;;6.90;1.05;;;17.70;99.90;;;;;;5009051;28;20111;-71
2023/08/04 07:58:32;;;;;;;2.90;0.90;;;17.60;99.90;;;;;;5009083;28;20049;-71
2023/08/04 08:00:58;;;;;;;3.10;1.02;;;17.70;99.90;;;;;;5014317;28;20536;-71
2023/08/04 08:03:24;;;;;;;6.75;1.10;;;17.70;99.90;;;;;;5006201;28;20080;-71
2023/08/04 08:05:50;;;;;;;3.50;1.10;;;17.70;99.90;;;;;;5016952;28;20038;-71
2023/08/04 08:08:17;;;;;;;4.60;1.52;;;17.70;99.90;;;;;;4995180;28;20041;-71
2023/08/04 08:10:43;;;;;;;4.15;1.02;;;17.80;99.90;;;;;;5008793;28;20049;-71
2023/08/04 08:13:08;;;;;;;6.45;1.10;;;17.90;99.90;;;;;;5008628;28;20555;-70
2023/08/04 08:15:35;;;;;;;2.50;1.40;;;17.90;99.90;;;;;;5005730;28;20507;-71
2023/08/04 08:18:02;;;;;;;2.97;0.95;;;18.00;99.90;;;;;;4995771;28;20124;-71
2023/08/04 08:20:27;;;;;;;;;;;18.10;99.90;;;;;;5030649;28;20164;-70
2023/08/04 08:22:53;;;;;;;2.78;0.88;;;18.10;99.90;;;;;;4991811;28;20006;-71
2023/08/04 08:25:19;;;;;;;;;;;18.10;99.90;;;;;;5005874;28;20451;-70
2023/08/04 08:27:45;;;;;;;6.60;1.40;;;18.10;99.90;;;;;;5024296;28;20079;-71
2023/08/04 08:30:11;;;;;;;6.25;1.05;;;18.20;99.90;;;;;;5007926;28;20065;-71
2023/08/04 08:32:37;;;;;;;5.32;0.77;;;18.20;99.90;;;;;;5008864;28;20056;-70
2023/08/04 08:35:03;;;;;;;4.53;0.98;;;18.30;99.90;;;;;;5029174;28;20049;-71
2023/08/04 08:37:29;;;;;;;;;;;18.40;99.90;;;;;;5010438;28;20046;-70
2023/08/04 08:39:54;;;;;;;7.20;1.00;;;18.40;99.90;;;;;;5023899;28;20263;-70
2023/08/04 08:42:20;;;;;;;2.80;0.80;;;18.50;99.90;;;;;;5007827;28;20423;-70
2023/08/04 08:44:46;;;;;;;1.85;0.60;;;18.50;99.90;;;;;;5009316;28;20084;-70
2023/08/04 08:47:12;;;;;;;3.38;0.70;;;18.60;99.90;;;;;;5008858;28;20051;-71
2023/08/04 08:49:44;;;;;;;4.07;0.80;;;18.60;99.90;;;;;;4996604;28;20388;-70
2023/08/04 08:52:10;;;;;;;5.93;1.10;;;18.70;99.90;;;;;;5006649;28;20112;-70
2023/08/04 08:54:36;;;;;;;2.78;0.85;;;18.70;99.90;;;;;;5006719;28;20239;-70
2023/08/04 08:57:04;;;;;;;3.25;0.63;;;18.70;99.90;;;;;;5026011;28;20514;-72
2023/08/04 08:59:34;;;;;;;2.15;0.63;;;18.70;99.90;;;;;;5022794;28;20056;-72
2023/08/04 09:02:02;;;;;;;4.07;0.90;;;18.80;99.90;;;;;;5011779;28;20040;-72
2023/08/04 09:04:33;;;;;;;3.40;0.60;;;18.80;99.90;;;;;;5005516;28;20049;-73
2023/08/04 09:06:58;;;;;;;5.38;0.80;;;18.80;99.90;;;;;;5014057;28;20194;-70
2023/08/04 09:09:24;;;;;;;3.25;0.65;;;18.80;99.90;;;;;;5022256;28;20037;-70
2023/08/04 09:11:51;;;;;;;1.27;0.50;;;18.90;99.90;;;;;;5005305;28;20056;-72
2023/08/04 09:14:16;;;;;;;3.45;0.60;;;18.90;99.90;;;;;;5024837;28;20095;-72
2023/08/04 09:16:43;;;;;;;1.17;0.45;;;18.90;99.90;;;;;;5024877;28;20045;-70
2023/08/04 09:19:09;;;;;;;;;;;19.00;99.90;;;;;;5009971;28;20081;-70
2023/08/04 09:21:36;;;;;;;4.22;0.68;;;18.90;99.90;;;;;;5007867;28;19971;-71
2023/08/04 09:24:03;;;;;;;1.85;0.70;;;19.00;99.90;;;;;;5024955;28;20106;-70
2023/08/04 09:26:42;;;;;;;2.58;1.23;;;19.10;99.90;;;;;;5022196;28;20045;-71
2023/08/04 09:29:08;;;;;;;4.78;1.13;;;19.20;99.90;;;;;;5005805;28;20109;-70
2023/08/04 09:31:46;;;;;;;5.18;1.42;;;19.30;99.90;;;;;;5006018;28;20060;-71
2023/08/04 09:34:12;;;;;;;6.57;1.30;;;19.50;99.90;;;;;;5004993;28;20399;-71
2023/08/04 09:36:42;;;;;;;4.63;1.55;;;19.40;99.90;;;;;;5002773;28;20049;-71
2023/08/04 09:39:09;;;;;;;4.03;1.92;;;19.40;99.90;;;;;;5013661;28;20041;-71
2023/08/04 09:41:38;;;;;;;5.32;1.55;;;19.40;99.90;;;;;;5010294;28;20060;-72
2023/08/04 09:44:05;;;;;;;5.53;1.13;;;19.50;99.90;;;;;;5008710;28;20038;-71
2023/08/04 09:46:32;;;;;;;10.77;1.60;;;19.60;99.90;;;;;;5026483;28;20041;-71
2023/08/04 09:48:59;;;;;;;4.97;1.52;;;19.60;99.90;;;;;;5008582;28;20052;-71
2023/08/04 09:51:25;;;;;;;4.47;1.15;;;19.60;99.90;;;;;;5007842;28;20053;-71
2023/08/04 09:53:54;;;;;;;2.30;0.70;;;19.50;99.90;;;;;;5025510;28;20427;-71
2023/08/04 09:56:21;;;;;;;4.60;1.25;;;19.50;99.90;;;;;;5008876;28;20056;-71
2023/08/04 09:58:48;;;;;;;4.70;1.13;;;19.50;99.90;;;;;;5006919;28;20353;-71
2023/08/04 10:01:15;;;;;;;5.20;1.00;;;19.50;99.90;;;;;;5006100;28;20137;-71
2023/08/04 10:03:43;;;;;;;5.63;1.88;;;19.50;99.90;;;;;;5027422;28;20097;-71
2023/08/04 10:06:09;;;;;;;2.38;0.90;;;19.40;99.90;;;;;;5020891;28;20102;-71
2023/08/04 10:08:39;;;;;;;3.75;0.93;;;19.30;99.90;;;;;;5023433;28;20098;-71
2023/08/04 10:11:08;;;;;;;3.85;1.00;;;19.40;99.90;;;;;;5006217;28;20471;-71
2023/08/04 10:13:37;;;;;;;5.63;1.10;;;19.50;99.90;;;;;;5022695;28;20049;-71
2023/08/04 10:16:06;;;;;;;6.15;1.42;;;19.60;99.90;;;;;;4988899;28;20037;-71
2023/08/04 10:18:52;;;;;;;3.33;0.90;;;19.80;99.90;;;;;;5003881;28;20064;-73
2023/08/04 10:21:35;;;;;;;3.47;0.80;;;19.90;99.90;;;;;;5018230;28;20045;-74
2023/08/04 10:24:06;;;;;;;2.75;0.93;;;19.90;99.90;;;;;;5005246;28;20100;-74
2023/08/04 10:26:33;;;;;;;4.30;1.20;;;19.80;99.90;;;;;;5011284;28;20094;-74
2023/08/04 10:29:05;;;;;;;2.72;0.90;;;19.80;99.90;;;;;;5011302;28;20121;-74
2023/08/04 10:31:52;;;;;;;3.72;1.10;;;19.80;99.90;;;;;;5006878;28;20053;-74
2023/08/04 10:34:18;;;;;;;3.58;1.35;;;19.90;99.90;;;;;;5011152;28;20056;-74
2023/08/04 10:37:04;;;;;;;3.65;1.63;;;19.90;99.90;;;;;;5007742;28;20558;-74
2023/08/04 10:39:35;;;;;;;4.22;0.85;;;19.90;99.90;;;;;;5008908;28;20079;-73
2023/08/04 10:42:06;;;;;;;3.05;0.98;;;19.70;99.90;;;;;;5020126;28;20046;-74
2023/08/04 10:44:56;;;;;;;1.70;0.80;;;19.70;99.90;;;;;;5010136;28;20328;-73
2023/08/04 10:47:29;;;;;;;1.60;0.52;;;19.70;99.90;;;;;;4995044;28;20049;-74
2023/08/04 10:49:57;;;;;;;12.85;1.90;;;19.60;99.90;;;;;;5024702;28;20041;-74
2023/08/04 10:52:23;;;;;;;9.15;1.00;;;19.70;99.90;;;;;;5026471;28;20459;-76
2023/08/04 10:54:51;;;;;;;6.15;1.10;;;19.80;99.90;;;;;;5010461;28;20364;-75
2023/08/04 10:57:27;;;;;;;8.02;1.40;;;19.90;99.90;;;;;;4995133;28;20193;-74
2023/08/04 10:59:53;;;;;;;;;;;20.10;99.90;;;;;;5042686;28;20487;-75
2023/08/04 11:02:23;;;;;;;4.22;0.80;;;20.10;99.90;;;;;;5024762;28;19916;-77
2023/08/04 11:04:50;;;;;;;3.83;0.73;;;20.00;99.90;;;;;;5015532;28;20047;-75
2023/08/04 11:07:16;;;;;;;6.03;0.75;;;20.00;99.90;;;;;;5017715;28;20115;-74
2023/08/04 11:09:44;;;;;;;3.33;0.80;;;20.10;99.90;;;;;;5005697;28;20534;-74
2023/08/04 11:12:10;;;;;;;3.70;1.13;;;20.30;99.90;;;;;;5014988;28;20037;-74
2023/08/04 11:14:36;;;;;;;4.30;1.00;;;20.40;99.90;;;;;;5004981;28;20457;-74
2023/08/04 11:17:02;;;;;;;3.28;1.13;;;20.60;99.90;;;;;;5010763;28;20142;-77
2023/08/04 11:19:29;;;;;;;4.40;1.00;;;20.70;99.90;;;;;;5007187;28;20033;-72
2023/08/04 11:21:55;;;;;;;10.40;1.38;;;20.90;99.90;;;;;;5010172;28;20392;-75
2023/08/04 11:24:24;;;;;;;3.47;0.88;;;21.00;99.90;;;;;;5008244;28;20037;-77
2023/08/04 11:26:53;;;;;;;1.67;0.60;;;21.10;99.90;;;;;;5013873;28;20507;-72
2023/08/04 11:29:18;;;;;;;1.65;0.50;;;21.00;99.90;;;;;;5009946;28;20156;-73
2023/08/04 11:31:46;;;;;;;2.72;0.70;;;21.00;99.90;;;;;;5001351;28;20139;-73
2023/08/04 11:34:16;;;;;;;1.58;0.60;;;21.00;99.90;;;;;;5006480;28;20204;-73
2023/08/04 11:36:42;;;;;;;3.17;0.75;;;21.10;99.90;;;;;;5010276;28;20052;-73
2023/08/04 11:39:08;;;;;;;4.97;0.90;;;21.00;99.90;;;;;;5017485;28;20124;-73
2023/08/04 11:41:34;;;;;;;;;;;21.00;99.90;;;;;;5010948;28;20055;-72
2023/08/04 11:44:00;;;;;;;1.67;0.75;;;20.90;99.90;;;;;;5010412;28;19986;-72
2023/08/04 11:46:30;;;;;;;6.25;0.95;;;20.80;99.90;;;;;;5009314;28;20079;-73
2023/08/04 11:48:56;;;;;;;1.90;0.55;;;20.70;99.90;;;;;;5007114;28;20087;-72
2023/08/04 11:51:22;;;;;;;2.17;0.68;;;20.70;99.90;;;;;;5011656;28;20194;-73
2023/08/04 11:53:49;;;;;;;2.35;0.60;;;20.60;99.90;;;;;;5015691;28;20045;-72
2023/08/04 11:56:15;;;;;;;3.28;0.70;;;20.50;99.90;;;;;;5027712;28;20061;-73
2023/08/04 11:58:41;;;;;;;;;;;20.60;99.90;;;;;;5017790;28;20041;-75
2023/08/04 12:01:29;;;;;;;3.60;0.90;;;20.70;99.90;;;;;;5002613;28;20011;-76
2023/08/04 12:03:56;;;;;;;4.15;0.93;;;20.90;99.90;;;;;;5002321;28;20060;-76
2023/08/04 12:06:23;;;;;;;7.25;1.05;;;21.00;99.90;;;;;;5021497;28;20064;-76
2023/08/04 12:09:00;;;;;;;7.47;1.50;;;21.20;99.90;;;;;;5008407;28;20060;-76
2023/08/04 12:11:27;;;;;;;6.55;1.30;;;21.20;99.90;;;;;;5020546;28;20052;-76
2023/08/04 12:14:08;;;;;;;3.17;0.60;;;21.20;99.90;;;;;;5007621;28;20052;-76
2023/08/04 12:16:53;;;;;;;3.50;1.23;;;21.30;99.90;;;;;;4989853;28;20049;-75
2023/08/04 12:19:20;;;;;;;2.13;0.80;;;21.30;99.90;;;;;;5001836;28;20054;-70
2023/08/04 12:21:47;;;;;;;2.33;0.80;;;21.20;99.90;;;;;;5024649;28;20053;-70
2023/08/04 12:24:13;;;;;;;2.92;0.90;;;21.10;99.90;;;;;;5009148;28;20053;-70
2023/08/04 12:26:39;;;;;;;;;;;21.00;99.90;;;;;;5010069;28;20537;-70
2023/08/04 12:29:05;;;;;;;3.10;1.05;;;20.90;99.90;;;;;;5006602;28;19927;-69
2023/08/04 12:31:31;;;;;;;4.13;1.27;;;20.80;99.90;;;;;;5001016;28;20046;-69
2023/08/04 12:33:56;;;;;;;3.22;1.10;;;20.70;99.90;;;;;;5008571;28;20061;-69
2023/08/04 12:36:22;;;;;;;3.42;1.52;;;20.70;99.90;;;;;;4993350;28;20054;-69
2023/08/04 12:38:47;;;;;;;3.28;1.10;;;20.70;99.90;;;;;;5007212;28;20045;-69
2023/08/04 12:41:13;;;;;;;4.18;1.00;;;20.70;99.90;;;;;;5022803;28;20037;-70
2023/08/04 12:43:39;;;;;;;2.90;1.02;;;20.80;99.90;;;;;;5004301;28;20096;-69
2023/08/04 12:46:04;;;;;;;4.28;1.13;;;21.00;99.90;;;;;;5026370;28;20052;-69
2023/08/04 12:48:30;;;;;;;4.10;1.00;;;21.10;99.90;;;;;;5009115;28;20614;-69